sensor_id;sensor_type;location;lat;lon;timestamp;P1;durP1;ratioP1;P2;durP2;ratioP2
18142;SDS011;9197;50.930;3.140;2023-04-15T00:02:13;7.03;;;4.70;;
18142;SDS011;9197;50.930;3.140;2023-04-15T00:04:42;4.77;;;4.27;;
18142;SDS011;9197;50.930;3.140;2023-04-15T00:07:09;5.43;;;4.93;;
18142;SDS011;9197;50.930;3.140;2023-04-15T00:09:36;5.37;;;4.67;;
18142;SDS011;9197;50.930;3.140;2023-04-15T00:12:04;5.60;;;5.00;;
18142;SDS011;9197;50.930;3.140;2023-04-15T00:14:32;6.13;;;5.57;;
18142;SDS011;9197;50.930;3.140;2023-04-15T00:17:02;7.77;;;5.20;;
18142;SDS011;9197;50.930;3.140;2023-04-15T00:19:30;6.00;;;5.30;;
18142;SDS011;9197;50.930;3.140;2023-04-15T00:21:57;6.03;;;5.23;;
18142;SDS011;9197;50.930;3.140;2023-04-15T00:24:24;7.50;;;5.13;;
18142;SDS011;9197;50.930;3.140;2023-04-15T00:26:52;5.57;;;5.07;;
18142;SDS011;9197;50.930;3.140;2023-04-15T00:29:19;5.47;;;4.97;;
18142;SDS011;9197;50.930;3.140;2023-04-15T00:31:46;7.00;;;5.53;;
18142;SDS011;9197;50.930;3.140;2023-04-15T00:34:15;6.23;;;5.67;;
18142;SDS011;9197;50.930;3.140;2023-04-15T00:36:42;6.57;;;6.07;;
18142;SDS011;9197;50.930;3.140;2023-04-15T00:39:09;6.37;;;5.77;;
18142;SDS011;9197;50.930;3.140;2023-04-15T00:41:36;6.97;;;6.37;;
18142;SDS011;9197;50.930;3.140;2023-04-15T00:44:04;6.03;;;5.53;;
18142;SDS011;9197;50.930;3.140;2023-04-15T00:46:32;6.23;;;5.73;;
18142;SDS011;9197;50.930;3.140;2023-04-15T00:49:01;6.23;;;5.57;;
18142;SDS011;9197;50.930;3.140;2023-04-15T00:51:31;8.73;;;6.00;;
18142;SDS011;9197;50.930;3.140;2023-04-15T00:54:00;6.90;;;4.77;;
18142;SDS011;9197;50.930;3.140;2023-04-15T00:56:27;6.20;;;5.70;;
18142;SDS011;9197;50.930;3.140;2023-04-15T00:58:55;7.27;;;5.47;;
18142;SDS011;9197;50.930;3.140;2023-04-15T01:01:23;5.47;;;4.97;;
18142;SDS011;9197;50.930;3.140;2023-04-15T01:03:50;5.83;;;5.00;;
18142;SDS011;9197;50.930;3.140;2023-04-15T01:06:17;8.13;;;5.70;;
18142;SDS011;9197;50.930;3.140;2023-04-15T01:08:46;6.97;;;5.87;;
18142;SDS011;9197;50.930;3.140;2023-04-15T01:11:14;5.87;;;5.37;;
18142;SDS011;9197;50.930;3.140;2023-04-15T01:13:41;6.70;;;6.10;;
18142;SDS011;9197;50.930;3.140;2023-04-15T01:16:09;6.97;;;6.33;;
18142;SDS011;9197;50.930;3.140;2023-04-15T01:18:37;7.70;;;6.83;;
18142;SDS011;9197;50.930;3.140;2023-04-15T01:21:05;8.43;;;7.10;;
18142;SDS011;9197;50.930;3.140;2023-04-15T01:23:34;10.60;;;6.50;;
18142;SDS011;9197;50.930;3.140;2023-04-15T01:26:04;9.63;;;6.73;;
18142;SDS011;9197;50.930;3.140;2023-04-15T01:28:32;7.17;;;5.93;;
18142;SDS011;9197;50.930;3.140;2023-04-15T01:31:05;7.00;;;6.40;;
18142;SDS011;9197;50.930;3.140;2023-04-15T01:33:33;8.57;;;7.43;;
18142;SDS011;9197;50.930;3.140;2023-04-15T01:36:00;7.83;;;6.93;;
18142;SDS011;9197;50.930;3.140;2023-04-15T01:38:27;7.43;;;6.73;;
18142;SDS011;9197;50.930;3.140;2023-04-15T01:40:55;8.97;;;7.83;;
18142;SDS011;9197;50.930;3.140;2023-04-15T01:43:24;12.23;;;8.63;;
18142;SDS011;9197;50.930;3.140;2023-04-15T01:45:52;14.13;;;8.97;;
18142;SDS011;9197;50.930;3.140;2023-04-15T01:48:19;13.93;;;10.47;;
18142;SDS011;9197;50.930;3.140;2023-04-15T01:50:47;14.23;;;10.00;;
18142;SDS011;9197;50.930;3.140;2023-04-15T01:53:14;15.90;;;10.20;;
18142;SDS011;9197;50.930;3.140;2023-04-15T01:55:41;18.13;;;10.67;;
18142;SDS011;9197;50.930;3.140;2023-04-15T01:58:08;15.67;;;9.60;;
18142;SDS011;9197;50.930;3.140;2023-04-15T02:00:37;15.57;;;10.10;;
18142;SDS011;9197;50.930;3.140;2023-04-15T02:03:05;16.73;;;9.53;;
18142;SDS011;9197;50.930;3.140;2023-04-15T02:05:32;16.43;;;10.43;;
18142;SDS011;9197;50.930;3.140;2023-04-15T02:07:59;16.67;;;10.53;;
18142;SDS011;9197;50.930;3.140;2023-04-15T02:10:26;14.00;;;10.07;;
18142;SDS011;9197;50.930;3.140;2023-04-15T02:12:53;16.17;;;10.40;;
18142;SDS011;9197;50.930;3.140;2023-04-15T02:15:21;15.47;;;10.57;;
18142;SDS011;9197;50.930;3.140;2023-04-15T02:17:50;22.50;;;12.63;;
18142;SDS011;9197;50.930;3.140;2023-04-15T02:20:19;25.03;;;13.53;;
18142;SDS011;9197;50.930;3.140;2023-04-15T02:22:46;22.90;;;13.30;;
18142;SDS011;9197;50.930;3.140;2023-04-15T02:25:14;23.00;;;13.07;;
18142;SDS011;9197;50.930;3.140;2023-04-15T02:27:42;23.03;;;13.43;;
18142;SDS011;9197;50.930;3.140;2023-04-15T02:30:09;23.27;;;12.97;;
18142;SDS011;9197;50.930;3.140;2023-04-15T02:32:37;20.73;;;11.83;;
18142;SDS011;9197;50.930;3.140;2023-04-15T02:35:06;19.97;;;11.37;;
18142;SDS011;9197;50.930;3.140;2023-04-15T02:37:35;20.10;;;11.43;;
18142;SDS011;9197;50.930;3.140;2023-04-15T02:40:06;17.07;;;10.27;;
18142;SDS011;9197;50.930;3.140;2023-04-15T02:42:34;14.27;;;8.87;;
18142;SDS011;9197;50.930;3.140;2023-04-15T02:45:01;9.73;;;7.63;;
18142;SDS011;9197;50.930;3.140;2023-04-15T02:47:29;9.40;;;7.30;;
18142;SDS011;9197;50.930;3.140;2023-04-15T02:49:56;8.97;;;6.80;;
18142;SDS011;9197;50.930;3.140;2023-04-15T02:52:26;10.53;;;7.93;;
18142;SDS011;9197;50.930;3.140;2023-04-15T02:54:53;11.03;;;7.93;;
18142;SDS011;9197;50.930;3.140;2023-04-15T02:57:24;11.30;;;7.70;;
18142;SDS011;9197;50.930;3.140;2023-04-15T02:59:51;9.80;;;7.70;;
18142;SDS011;9197;50.930;3.140;2023-04-15T03:02:19;9.23;;;7.73;;
18142;SDS011;9197;50.930;3.140;2023-04-15T03:04:46;14.23;;;10.33;;
18142;SDS011;9197;50.930;3.140;2023-04-15T03:07:13;11.37;;;9.73;;
18142;SDS011;9197;50.930;3.140;2023-04-15T03:09:42;11.57;;;10.33;;
18142;SDS011;9197;50.930;3.140;2023-04-15T03:12:09;13.40;;;11.33;;
18142;SDS011;9197;50.930;3.140;2023-04-15T03:14:36;12.87;;;11.47;;
18142;SDS011;9197;50.930;3.140;2023-04-15T03:17:03;14.07;;;11.33;;
18142;SDS011;9197;50.930;3.140;2023-04-15T03:19:30;13.00;;;11.73;;
18142;SDS011;9197;50.930;3.140;2023-04-15T03:21:58;14.13;;;12.40;;
18142;SDS011;9197;50.930;3.140;2023-04-15T03:24:25;14.80;;;13.30;;
18142;SDS011;9197;50.930;3.140;2023-04-15T03:26:55;15.17;;;13.10;;
18142;SDS011;9197;50.930;3.140;2023-04-15T03:29:22;17.10;;;14.43;;
18142;SDS011;9197;50.930;3.140;2023-04-15T03:31:50;17.83;;;15.77;;
18142;SDS011;9197;50.930;3.140;2023-04-15T03:34:17;17.20;;;14.90;;
18142;SDS011;9197;50.930;3.140;2023-04-15T03:36:45;17.63;;;15.67;;
18142;SDS011;9197;50.930;3.140;2023-04-15T03:39:12;21.87;;;17.23;;
18142;SDS011;9197;50.930;3.140;2023-04-15T03:41:40;19.97;;;16.40;;
18142;SDS011;9197;50.930;3.140;2023-04-15T03:44:08;20.43;;;17.20;;
18142;SDS011;9197;50.930;3.140;2023-04-15T03:46:35;18.57;;;15.87;;
18142;SDS011;9197;50.930;3.140;2023-04-15T03:49:03;18.00;;;15.63;;
18142;SDS011;9197;50.930;3.140;2023-04-15T03:51:31;18.30;;;16.40;;
18142;SDS011;9197;50.930;3.140;2023-04-15T03:53:58;18.40;;;16.40;;
18142;SDS011;9197;50.930;3.140;2023-04-15T03:56:26;18.67;;;16.53;;
18142;SDS011;9197;50.930;3.140;2023-04-15T03:58:53;20.20;;;16.73;;
18142;SDS011;9197;50.930;3.140;2023-04-15T04:01:22;18.97;;;16.97;;
18142;SDS011;9197;50.930;3.140;2023-04-15T04:03:49;17.57;;;15.77;;
18142;SDS011;9197;50.930;3.140;2023-04-15T04:06:16;18.93;;;16.87;;
18142;SDS011;9197;50.930;3.140;2023-04-15T04:08:43;19.10;;;15.40;;
18142;SDS011;9197;50.930;3.140;2023-04-15T04:11:10;18.77;;;16.77;;
18142;SDS011;9197;50.930;3.140;2023-04-15T04:13:38;18.67;;;15.03;;
18142;SDS011;9197;50.930;3.140;2023-04-15T04:16:05;15.60;;;14.00;;
18142;SDS011;9197;50.930;3.140;2023-04-15T04:18:34;14.90;;;12.47;;
18142;SDS011;9197;50.930;3.140;2023-04-15T04:21:01;15.20;;;13.63;;
18142;SDS011;9197;50.930;3.140;2023-04-15T04:23:28;16.50;;;13.83;;
18142;SDS011;9197;50.930;3.140;2023-04-15T04:25:56;17.30;;;15.03;;
18142;SDS011;9197;50.930;3.140;2023-04-15T04:28:23;17.73;;;15.37;;
18142;SDS011;9197;50.930;3.140;2023-04-15T04:30:50;17.00;;;15.30;;
18142;SDS011;9197;50.930;3.140;2023-04-15T04:33:17;18.00;;;15.00;;
18142;SDS011;9197;50.930;3.140;2023-04-15T04:35:46;19.10;;;16.13;;
18142;SDS011;9197;50.930;3.140;2023-04-15T04:38:13;17.70;;;15.80;;
18142;SDS011;9197;50.930;3.140;2023-04-15T04:40:40;22.17;;;15.80;;
18142;SDS011;9197;50.930;3.140;2023-04-15T04:43:07;19.53;;;16.07;;
18142;SDS011;9197;50.930;3.140;2023-04-15T04:45:35;18.70;;;16.30;;
18142;SDS011;9197;50.930;3.140;2023-04-15T04:48:02;18.77;;;16.77;;
18142;SDS011;9197;50.930;3.140;2023-04-15T04:50:31;24.23;;;18.37;;
18142;SDS011;9197;50.930;3.140;2023-04-15T04:52:59;21.37;;;18.57;;
18142;SDS011;9197;50.930;3.140;2023-04-15T04:55:26;21.67;;;18.93;;
18142;SDS011;9197;50.930;3.140;2023-04-15T04:57:54;22.00;;;19.70;;
18142;SDS011;9197;50.930;3.140;2023-04-15T05:00:21;24.30;;;19.73;;
18142;SDS011;9197;50.930;3.140;2023-04-15T05:02:48;23.43;;;19.67;;
18142;SDS011;9197;50.930;3.140;2023-04-15T05:05:15;24.60;;;19.73;;
18142;SDS011;9197;50.930;3.140;2023-04-15T05:07:43;25.33;;;19.73;;
18142;SDS011;9197;50.930;3.140;2023-04-15T05:10:11;26.83;;;22.00;;
18142;SDS011;9197;50.930;3.140;2023-04-15T05:12:41;28.17;;;22.00;;
18142;SDS011;9197;50.930;3.140;2023-04-15T05:15:09;23.40;;;19.87;;
18142;SDS011;9197;50.930;3.140;2023-04-15T05:17:36;24.63;;;21.10;;
18142;SDS011;9197;50.930;3.140;2023-04-15T05:20:03;29.43;;;21.90;;
18142;SDS011;9197;50.930;3.140;2023-04-15T05:22:31;29.83;;;23.10;;
18142;SDS011;9197;50.930;3.140;2023-04-15T05:24:58;28.70;;;22.17;;
18142;SDS011;9197;50.930;3.140;2023-04-15T05:27:26;30.50;;;24.47;;
18142;SDS011;9197;50.930;3.140;2023-04-15T05:29:54;30.50;;;23.50;;
18142;SDS011;9197;50.930;3.140;2023-04-15T05:32:21;30.07;;;24.23;;
18142;SDS011;9197;50.930;3.140;2023-04-15T05:34:48;34.30;;;24.63;;
18142;SDS011;9197;50.930;3.140;2023-04-15T05:37:16;30.77;;;24.10;;
18142;SDS011;9197;50.930;3.140;2023-04-15T05:39:45;30.27;;;24.80;;
18142;SDS011;9197;50.930;3.140;2023-04-15T05:42:12;27.73;;;23.40;;
18142;SDS011;9197;50.930;3.140;2023-04-15T05:44:41;32.57;;;23.90;;
18142;SDS011;9197;50.930;3.140;2023-04-15T05:47:08;29.13;;;23.93;;
18142;SDS011;9197;50.930;3.140;2023-04-15T05:49:35;32.67;;;25.30;;
18142;SDS011;9197;50.930;3.140;2023-04-15T05:52:02;29.43;;;23.70;;
18142;SDS011;9197;50.930;3.140;2023-04-15T05:54:30;30.13;;;22.23;;
18142;SDS011;9197;50.930;3.140;2023-04-15T05:56:57;27.17;;;22.73;;
18142;SDS011;9197;50.930;3.140;2023-04-15T05:59:25;28.53;;;20.37;;
18142;SDS011;9197;50.930;3.140;2023-04-15T06:01:53;25.13;;;21.63;;
18142;SDS011;9197;50.930;3.140;2023-04-15T06:04:21;26.20;;;21.00;;
18142;SDS011;9197;50.930;3.140;2023-04-15T06:06:48;23.43;;;19.40;;
18142;SDS011;9197;50.930;3.140;2023-04-15T06:09:15;25.20;;;18.37;;
18142;SDS011;9197;50.930;3.140;2023-04-15T06:11:42;25.10;;;17.93;;
18142;SDS011;9197;50.930;3.140;2023-04-15T06:14:09;21.07;;;17.03;;
18142;SDS011;9197;50.930;3.140;2023-04-15T06:16:37;22.53;;;18.63;;
18142;SDS011;9197;50.930;3.140;2023-04-15T06:19:05;21.93;;;18.23;;
18142;SDS011;9197;50.930;3.140;2023-04-15T06:21:32;23.83;;;16.90;;
18142;SDS011;9197;50.930;3.140;2023-04-15T06:24:00;21.23;;;16.97;;
18142;SDS011;9197;50.930;3.140;2023-04-15T06:26:27;20.67;;;15.70;;
18142;SDS011;9197;50.930;3.140;2023-04-15T06:28:55;20.10;;;16.27;;
18142;SDS011;9197;50.930;3.140;2023-04-15T06:31:22;23.03;;;17.27;;
18142;SDS011;9197;50.930;3.140;2023-04-15T06:33:49;20.37;;;16.13;;
18142;SDS011;9197;50.930;3.140;2023-04-15T06:36:18;21.03;;;16.43;;
18142;SDS011;9197;50.930;3.140;2023-04-15T06:38:45;18.10;;;15.37;;
18142;SDS011;9197;50.930;3.140;2023-04-15T06:41:12;18.80;;;15.13;;
18142;SDS011;9197;50.930;3.140;2023-04-15T06:43:40;23.03;;;17.37;;
18142;SDS011;9197;50.930;3.140;2023-04-15T06:46:07;21.43;;;16.60;;
18142;SDS011;9197;50.930;3.140;2023-04-15T06:48:35;28.10;;;19.00;;
18142;SDS011;9197;50.930;3.140;2023-04-15T06:51:02;27.07;;;17.37;;
18142;SDS011;9197;50.930;3.140;2023-04-15T06:53:30;21.90;;;15.17;;
18142;SDS011;9197;50.930;3.140;2023-04-15T06:55:58;22.37;;;16.97;;
18142;SDS011;9197;50.930;3.140;2023-04-15T06:58:25;21.93;;;16.93;;
18142;SDS011;9197;50.930;3.140;2023-04-15T07:00:52;19.00;;;15.60;;
18142;SDS011;9197;50.930;3.140;2023-04-15T07:03:19;18.37;;;15.63;;
18142;SDS011;9197;50.930;3.140;2023-04-15T07:05:46;19.63;;;15.03;;
18142;SDS011;9197;50.930;3.140;2023-04-15T07:08:14;19.40;;;17.27;;
18142;SDS011;9197;50.930;3.140;2023-04-15T07:10:42;22.07;;;15.53;;
18142;SDS011;9197;50.930;3.140;2023-04-15T07:13:13;21.53;;;15.70;;
18142;SDS011;9197;50.930;3.140;2023-04-15T07:15:40;20.97;;;16.67;;
18142;SDS011;9197;50.930;3.140;2023-04-15T07:18:07;19.93;;;16.13;;
18142;SDS011;9197;50.930;3.140;2023-04-15T07:20:34;18.43;;;15.93;;
18142;SDS011;9197;50.930;3.140;2023-04-15T07:23:02;29.53;;;18.33;;
18142;SDS011;9197;50.930;3.140;2023-04-15T07:25:29;33.70;;;29.27;;
18142;SDS011;9197;50.930;3.140;2023-04-15T07:27:57;33.40;;;30.10;;
18142;SDS011;9197;50.930;3.140;2023-04-15T07:30:25;32.70;;;26.63;;
18142;SDS011;9197;50.930;3.140;2023-04-15T07:32:52;30.27;;;23.13;;
18142;SDS011;9197;50.930;3.140;2023-04-15T07:35:20;27.83;;;23.50;;
18142;SDS011;9197;50.930;3.140;2023-04-15T07:37:47;32.03;;;19.07;;
18142;SDS011;9197;50.930;3.140;2023-04-15T07:40:15;30.57;;;18.93;;
18142;SDS011;9197;50.930;3.140;2023-04-15T07:42:42;22.03;;;17.33;;
18142;SDS011;9197;50.930;3.140;2023-04-15T07:45:11;22.93;;;16.43;;
18142;SDS011;9197;50.930;3.140;2023-04-15T07:47:38;23.53;;;14.83;;
18142;SDS011;9197;50.930;3.140;2023-04-15T07:50:08;20.93;;;15.10;;
18142;SDS011;9197;50.930;3.140;2023-04-15T07:52:35;19.93;;;14.17;;
18142;SDS011;9197;50.930;3.140;2023-04-15T07:55:04;19.20;;;12.50;;
18142;SDS011;9197;50.930;3.140;2023-04-15T07:57:32;14.40;;;12.40;;
18142;SDS011;9197;50.930;3.140;2023-04-15T07:59:59;18.57;;;11.43;;
18142;SDS011;9197;50.930;3.140;2023-04-15T08:02:29;19.33;;;11.77;;
18142;SDS011;9197;50.930;3.140;2023-04-15T08:04:56;15.30;;;11.70;;
18142;SDS011;9197;50.930;3.140;2023-04-15T08:07:23;15.40;;;11.03;;
18142;SDS011;9197;50.930;3.140;2023-04-15T08:09:51;12.83;;;10.90;;
18142;SDS011;9197;50.930;3.140;2023-04-15T08:12:18;13.83;;;9.30;;
18142;SDS011;9197;50.930;3.140;2023-04-15T08:14:45;15.37;;;10.73;;
18142;SDS011;9197;50.930;3.140;2023-04-15T08:17:13;12.03;;;9.17;;
18142;SDS011;9197;50.930;3.140;2023-04-15T08:19:41;12.13;;;10.47;;
18142;SDS011;9197;50.930;3.140;2023-04-15T08:22:09;12.30;;;9.13;;
18142;SDS011;9197;50.930;3.140;2023-04-15T08:24:36;11.80;;;9.47;;
18142;SDS011;9197;50.930;3.140;2023-04-15T08:27:04;11.57;;;8.50;;
18142;SDS011;9197;50.930;3.140;2023-04-15T08:29:32;9.23;;;8.27;;
18142;SDS011;9197;50.930;3.140;2023-04-15T08:31:59;12.50;;;7.23;;
18142;SDS011;9197;50.930;3.140;2023-04-15T08:34:27;8.77;;;6.63;;
18142;SDS011;9197;50.930;3.140;2023-04-15T08:36:56;12.90;;;10.30;;
18142;SDS011;9197;50.930;3.140;2023-04-15T08:39:23;11.23;;;7.23;;
18142;SDS011;9197;50.930;3.140;2023-04-15T08:41:53;8.90;;;7.27;;
18142;SDS011;9197;50.930;3.140;2023-04-15T08:44:22;7.47;;;5.10;;
18142;SDS011;9197;50.930;3.140;2023-04-15T08:46:50;10.90;;;5.17;;
18142;SDS011;9197;50.930;3.140;2023-04-15T08:49:17;6.60;;;5.40;;
18142;SDS011;9197;50.930;3.140;2023-04-15T08:51:45;8.63;;;6.33;;
18142;SDS011;9197;50.930;3.140;2023-04-15T08:54:15;8.13;;;7.27;;
18142;SDS011;9197;50.930;3.140;2023-04-15T08:56:42;8.30;;;7.17;;
18142;SDS011;9197;50.930;3.140;2023-04-15T08:59:09;12.97;;;7.87;;
18142;SDS011;9197;50.930;3.140;2023-04-15T09:01:36;11.97;;;7.63;;
18142;SDS011;9197;50.930;3.140;2023-04-15T09:04:04;8.97;;;7.27;;
18142;SDS011;9197;50.930;3.140;2023-04-15T09:06:32;11.53;;;9.00;;
18142;SDS011;9197;50.930;3.140;2023-04-15T09:08:59;12.17;;;8.90;;
18142;SDS011;9197;50.930;3.140;2023-04-15T09:11:28;9.80;;;7.97;;
18142;SDS011;9197;50.930;3.140;2023-04-15T09:13:56;14.60;;;10.00;;
18142;SDS011;9197;50.930;3.140;2023-04-15T09:16:23;12.13;;;8.67;;
18142;SDS011;9197;50.930;3.140;2023-04-15T09:18:50;12.38;;;9.68;;
18142;SDS011;9197;50.930;3.140;2023-04-15T09:21:17;8.77;;;7.30;;
18142;SDS011;9197;50.930;3.140;2023-04-15T09:23:54;11.45;;;7.15;;
18142;SDS011;9197;50.930;3.140;2023-04-15T09:26:30;9.68;;;7.05;;
18142;SDS011;9197;50.930;3.140;2023-04-15T09:29:01;7.13;;;6.22;;
18142;SDS011;9197;50.930;3.140;2023-04-15T09:31:30;9.25;;;7.82;;
18142;SDS011;9197;50.930;3.140;2023-04-15T09:33:57;7.45;;;6.53;;
18142;SDS011;9197;50.930;3.140;2023-04-15T09:36:24;9.27;;;6.53;;
18142;SDS011;9197;50.930;3.140;2023-04-15T09:38:54;6.72;;;4.68;;
18142;SDS011;9197;50.930;3.140;2023-04-15T09:41:22;5.88;;;4.68;;
18142;SDS011;9197;50.930;3.140;2023-04-15T09:43:50;6.47;;;5.38;;
18142;SDS011;9197;50.930;3.140;2023-04-15T09:46:18;6.88;;;4.97;;
18142;SDS011;9197;50.930;3.140;2023-04-15T09:48:45;6.35;;;5.10;;
18142;SDS011;9197;50.930;3.140;2023-04-15T09:51:12;6.18;;;5.35;;
18142;SDS011;9197;50.930;3.140;2023-04-15T09:53:40;6.85;;;5.30;;
18142;SDS011;9197;50.930;3.140;2023-04-15T09:56:07;7.88;;;5.65;;
18142;SDS011;9197;50.930;3.140;2023-04-15T09:58:35;6.03;;;5.35;;
18142;SDS011;9197;50.930;3.140;2023-04-15T10:01:04;7.85;;;5.95;;
18142;SDS011;9197;50.930;3.140;2023-04-15T10:03:33;9.07;;;6.05;;
18142;SDS011;9197;50.930;3.140;2023-04-15T10:06:01;8.23;;;6.32;;
18142;SDS011;9197;50.930;3.140;2023-04-15T10:08:30;9.65;;;6.68;;
18142;SDS011;9197;50.930;3.140;2023-04-15T10:10:59;9.63;;;6.90;;
18142;SDS011;9197;50.930;3.140;2023-04-15T10:13:28;12.55;;;8.07;;
18142;SDS011;9197;50.930;3.140;2023-04-15T10:15:58;8.77;;;6.40;;
18142;SDS011;9197;50.930;3.140;2023-04-15T10:18:27;12.48;;;7.78;;
18142;SDS011;9197;50.930;3.140;2023-04-15T10:20:54;8.32;;;6.82;;
18142;SDS011;9197;50.930;3.140;2023-04-15T10:23:22;8.38;;;7.57;;
18142;SDS011;9197;50.930;3.140;2023-04-15T10:25:50;8.85;;;7.90;;
18142;SDS011;9197;50.930;3.140;2023-04-15T10:28:18;9.93;;;8.15;;
18142;SDS011;9197;50.930;3.140;2023-04-15T10:30:47;11.20;;;7.68;;
18142;SDS011;9197;50.930;3.140;2023-04-15T10:33:15;9.05;;;8.13;;
18142;SDS011;9197;50.930;3.140;2023-04-15T10:35:45;11.43;;;8.13;;
18142;SDS011;9197;50.930;3.140;2023-04-15T10:41:16;11.15;;;8.68;;
18142;SDS011;9197;50.930;3.140;2023-04-15T10:43:47;12.43;;;11.23;;
18142;SDS011;9197;50.930;3.140;2023-04-15T10:46:18;9.57;;;8.77;;
18142;SDS011;9197;50.930;3.140;2023-04-15T10:48:46;11.07;;;10.02;;
18142;SDS011;9197;50.930;3.140;2023-04-15T10:51:16;11.15;;;10.05;;
18142;SDS011;9197;50.930;3.140;2023-04-15T10:53:43;11.45;;;8.10;;
18142;SDS011;9197;50.930;3.140;2023-04-15T10:56:10;11.30;;;8.82;;
18142;SDS011;9197;50.930;3.140;2023-04-15T10:58:40;10.57;;;9.48;;
18142;SDS011;9197;50.930;3.140;2023-04-15T11:01:08;9.75;;;7.80;;
18142;SDS011;9197;50.930;3.140;2023-04-15T11:03:36;10.02;;;9.02;;
18142;SDS011;9197;50.930;3.140;2023-04-15T11:06:03;9.77;;;7.20;;
18142;SDS011;9197;50.930;3.140;2023-04-15T11:11:18;11.02;;;8.05;;
18142;SDS011;9197;50.930;3.140;2023-04-15T11:13:49;10.57;;;8.23;;
18142;SDS011;9197;50.930;3.140;2023-04-15T11:16:16;8.07;;;7.03;;
18142;SDS011;9197;50.930;3.140;2023-04-15T11:18:52;5.30;;;4.45;;
18142;SDS011;9197;50.930;3.140;2023-04-15T11:21:20;5.05;;;3.72;;
18142;SDS011;9197;50.930;3.140;2023-04-15T11:23:50;6.90;;;4.50;;
18142;SDS011;9197;50.930;3.140;2023-04-15T11:26:19;5.53;;;4.05;;
18142;SDS011;9197;50.930;3.140;2023-04-15T11:28:51;7.45;;;4.35;;
18142;SDS011;9197;50.930;3.140;2023-04-15T11:31:19;7.00;;;4.13;;
18142;SDS011;9197;50.930;3.140;2023-04-15T11:33:52;6.45;;;4.93;;
18142;SDS011;9197;50.930;3.140;2023-04-15T11:36:20;8.48;;;5.30;;
18142;SDS011;9197;50.930;3.140;2023-04-15T11:38:50;5.25;;;4.22;;
18142;SDS011;9197;50.930;3.140;2023-04-15T11:41:20;6.07;;;5.47;;
18142;SDS011;9197;50.930;3.140;2023-04-15T11:43:47;5.23;;;4.67;;
18142;SDS011;9197;50.930;3.140;2023-04-15T11:46:15;6.55;;;5.75;;
18142;SDS011;9197;50.930;3.140;2023-04-15T11:48:43;8.93;;;5.22;;
18142;SDS011;9197;50.930;3.140;2023-04-15T11:51:11;7.80;;;5.73;;
18142;SDS011;9197;50.930;3.140;2023-04-15T11:53:39;7.33;;;5.90;;
18142;SDS011;9197;50.930;3.140;2023-04-15T11:56:07;8.73;;;6.27;;
18142;SDS011;9197;50.930;3.140;2023-04-15T11:58:36;5.40;;;4.90;;
18142;SDS011;9197;50.930;3.140;2023-04-15T12:01:03;6.17;;;5.57;;
18142;SDS011;9197;50.930;3.140;2023-04-15T12:03:35;7.35;;;5.95;;
18142;SDS011;9197;50.930;3.140;2023-04-15T12:06:06;4.95;;;4.45;;
18142;SDS011;9197;50.930;3.140;2023-04-15T12:11:30;4.97;;;4.47;;
18142;SDS011;9197;50.930;3.140;2023-04-15T12:14:01;4.90;;;3.77;;
18142;SDS011;9197;50.930;3.140;2023-04-15T12:16:29;6.07;;;3.87;;
18142;SDS011;9197;50.930;3.140;2023-04-15T12:18:57;6.77;;;5.07;;
18142;SDS011;9197;50.930;3.140;2023-04-15T12:21:24;6.03;;;4.28;;
18142;SDS011;9197;50.930;3.140;2023-04-15T12:23:52;5.00;;;3.57;;
18142;SDS011;9197;50.930;3.140;2023-04-15T12:26:24;4.50;;;3.50;;
18142;SDS011;9197;50.930;3.140;2023-04-15T12:28:52;3.83;;;3.53;;
18142;SDS011;9197;50.930;3.140;2023-04-15T12:31:22;3.53;;;2.70;;
18142;SDS011;9197;50.930;3.140;2023-04-15T12:33:49;3.63;;;2.63;;
18142;SDS011;9197;50.930;3.140;2023-04-15T12:36:16;4.57;;;2.90;;
18142;SDS011;9197;50.930;3.140;2023-04-15T12:38:43;2.67;;;2.42;;
18142;SDS011;9197;50.930;3.140;2023-04-15T12:41:10;2.93;;;2.63;;
18142;SDS011;9197;50.930;3.140;2023-04-15T12:43:38;3.38;;;2.38;;
18142;SDS011;9197;50.930;3.140;2023-04-15T12:46:05;3.33;;;2.67;;
18142;SDS011;9197;50.930;3.140;2023-04-15T12:48:35;3.07;;;2.40;;
18142;SDS011;9197;50.930;3.140;2023-04-15T12:51:02;5.13;;;3.00;;
18142;SDS011;9197;50.930;3.140;2023-04-15T12:53:30;3.97;;;2.70;;
18142;SDS011;9197;50.930;3.140;2023-04-15T12:55:57;7.13;;;4.47;;
18142;SDS011;9197;50.930;3.140;2023-04-15T12:58:24;5.40;;;3.93;;
18142;SDS011;9197;50.930;3.140;2023-04-15T13:00:51;4.97;;;4.43;;
18142;SDS011;9197;50.930;3.140;2023-04-15T13:03:19;8.27;;;5.93;;
18142;SDS011;9197;50.930;3.140;2023-04-15T13:05:47;7.43;;;6.53;;
18142;SDS011;9197;50.930;3.140;2023-04-15T13:08:15;7.50;;;6.20;;
18142;SDS011;9197;50.930;3.140;2023-04-15T13:10:42;10.50;;;7.27;;
18142;SDS011;9197;50.930;3.140;2023-04-15T13:13:09;9.60;;;6.93;;
18142;SDS011;9197;50.930;3.140;2023-04-15T13:15:36;8.47;;;7.13;;
18142;SDS011;9197;50.930;3.140;2023-04-15T13:18:05;10.07;;;6.97;;
18142;SDS011;9197;50.930;3.140;2023-04-15T13:20:32;9.10;;;8.20;;
18142;SDS011;9197;50.930;3.140;2023-04-15T13:23:01;9.23;;;8.17;;
18142;SDS011;9197;50.930;3.140;2023-04-15T13:25:28;8.57;;;7.77;;
18142;SDS011;9197;50.930;3.140;2023-04-15T13:27:55;8.73;;;7.87;;
18142;SDS011;9197;50.930;3.140;2023-04-15T13:30:22;8.60;;;7.80;;
18142;SDS011;9197;50.930;3.140;2023-04-15T13:32:50;10.50;;;8.43;;
18142;SDS011;9197;50.930;3.140;2023-04-15T13:35:18;11.17;;;8.40;;
18142;SDS011;9197;50.930;3.140;2023-04-15T13:37:45;9.13;;;7.43;;
18142;SDS011;9197;50.930;3.140;2023-04-15T13:40:14;8.23;;;7.43;;
18142;SDS011;9197;50.930;3.140;2023-04-15T13:42:41;9.40;;;8.30;;
18142;SDS011;9197;50.930;3.140;2023-04-15T13:45:08;9.57;;;8.03;;
18142;SDS011;9197;50.930;3.140;2023-04-15T13:47:36;8.50;;;7.37;;
18142;SDS011;9197;50.930;3.140;2023-04-15T13:50:04;8.20;;;7.20;;
18142;SDS011;9197;50.930;3.140;2023-04-15T13:52:31;8.60;;;7.43;;
18142;SDS011;9197;50.930;3.140;2023-04-15T13:54:58;9.00;;;7.23;;
18142;SDS011;9197;50.930;3.140;2023-04-15T13:57:27;9.20;;;7.77;;
18142;SDS011;9197;50.930;3.140;2023-04-15T13:59:54;9.40;;;8.50;;
18142;SDS011;9197;50.930;3.140;2023-04-15T14:02:21;8.70;;;6.90;;
18142;SDS011;9197;50.930;3.140;2023-04-15T14:04:48;8.10;;;7.30;;
18142;SDS011;9197;50.930;3.140;2023-04-15T14:07:15;8.07;;;7.27;;
18142;SDS011;9197;50.930;3.140;2023-04-15T14:09:43;7.67;;;6.97;;
18142;SDS011;9197;50.930;3.140;2023-04-15T14:12:10;9.80;;;7.83;;
18142;SDS011;9197;50.930;3.140;2023-04-15T14:14:39;6.47;;;5.87;;
18142;SDS011;9197;50.930;3.140;2023-04-15T14:17:06;6.40;;;5.13;;
18142;SDS011;9197;50.930;3.140;2023-04-15T14:19:33;7.73;;;5.50;;
18142;SDS011;9197;50.930;3.140;2023-04-15T14:22:00;5.40;;;4.63;;
18142;SDS011;9197;50.930;3.140;2023-04-15T14:24:28;4.87;;;4.30;;
18142;SDS011;9197;50.930;3.140;2023-04-15T14:26:55;6.50;;;5.47;;
18142;SDS011;9197;50.930;3.140;2023-04-15T14:29:22;5.40;;;4.90;;
18142;SDS011;9197;50.930;3.140;2023-04-15T14:31:51;9.17;;;5.73;;
18142;SDS011;9197;50.930;3.140;2023-04-15T14:34:21;7.10;;;5.03;;
18142;SDS011;9197;50.930;3.140;2023-04-15T14:36:49;8.07;;;6.23;;
18142;SDS011;9197;50.930;3.140;2023-04-15T14:39:17;7.97;;;5.33;;
18142;SDS011;9197;50.930;3.140;2023-04-15T14:41:44;7.53;;;4.90;;
18142;SDS011;9197;50.930;3.140;2023-04-15T14:44:11;8.47;;;4.93;;
18142;SDS011;9197;50.930;3.140;2023-04-15T14:46:38;8.27;;;5.00;;
18142;SDS011;9197;50.930;3.140;2023-04-15T14:49:07;6.00;;;5.30;;
18142;SDS011;9197;50.930;3.140;2023-04-15T14:51:34;9.07;;;6.87;;
18142;SDS011;9197;50.930;3.140;2023-04-15T14:54:01;7.43;;;5.80;;
18142;SDS011;9197;50.930;3.140;2023-04-15T14:56:28;8.27;;;6.10;;
18142;SDS011;9197;50.930;3.140;2023-04-15T14:58:56;6.40;;;5.47;;
18142;SDS011;9197;50.930;3.140;2023-04-15T15:01:23;9.63;;;5.47;;